createdAt,value
2023-02-16T00:02:07.806Z,99.99
2023-02-16T00:07:08.916Z,99.99
2023-02-16T00:12:10.055Z,99.99
2023-02-16T00:17:11.261Z,99.99
2023-02-16T00:22:12.420Z,99.99
2023-02-16T00:27:13.554Z,99.99
2023-02-16T00:32:14.855Z,99.99
2023-02-16T00:37:16.153Z,99.99
2023-02-16T00:42:17.283Z,99.99
2023-02-16T00:47:18.438Z,99.99
2023-02-16T00:52:19.584Z,99.99
2023-02-16T00:57:21.751Z,99.99
2023-02-16T01:02:21.912Z,99.99
2023-02-16T01:07:22.350Z,99.99
2023-02-16T01:12:23.498Z,99.99
2023-02-16T01:17:22.633Z,99.99
2023-02-16T01:22:23.763Z,99.99
2023-02-16T01:27:25.880Z,99.99
2023-02-16T01:32:26.076Z,99.99
2023-02-16T01:37:26.234Z,99.99
2023-02-16T01:42:25.735Z,99.99
2023-02-16T01:47:24.824Z,99.99
2023-02-16T01:52:26.972Z,99.99
2023-02-16T01:57:26.119Z,99.99
2023-02-16T02:02:27.365Z,99.99
2023-02-16T02:07:28.648Z,99.99
2023-02-16T02:12:29.858Z,99.99
2023-02-16T02:17:30.155Z,99.99
2023-02-16T02:22:31.379Z,99.99
2023-02-16T02:27:33.543Z,99.99
2023-02-16T02:32:32.714Z,99.99
2023-02-16T02:37:33.902Z,99.99
2023-02-16T02:42:35.038Z,99.99
2023-02-16T02:47:36.194Z,99.99
2023-02-16T02:52:38.310Z,99.99
2023-02-16T02:57:38.430Z,99.99
2023-02-16T03:02:37.612Z,99.99
2023-02-16T03:07:39.777Z,99.99
2023-02-16T03:12:37.965Z,99.99
2023-02-16T03:17:40.132Z,99.99
2023-02-16T03:22:40.246Z,99.99
2023-02-16T03:27:40.401Z,99.99
2023-02-16T03:32:39.578Z,99.99
2023-02-16T03:37:41.694Z,99.99
2023-02-16T03:42:40.848Z,99.99
2023-02-16T03:47:42.034Z,99.99
2023-02-16T03:52:43.170Z,99.99
2023-02-16T03:57:44.331Z,99.99
2023-02-16T04:02:45.514Z,99.99
2023-02-16T04:07:47.658Z,99.99
2023-02-16T04:12:46.937Z,99.99
2023-02-16T04:17:48.195Z,99.99
2023-02-16T04:22:49.337Z,99.99
2023-02-16T04:27:51.487Z,99.99
2023-02-16T04:32:51.698Z,99.99
2023-02-16T04:37:50.860Z,99.99
2023-02-16T04:42:52.980Z,99.99
2023-02-16T04:47:52.134Z,99.99
2023-02-16T04:52:53.240Z,99.99
2023-02-16T04:57:54.512Z,99.99
2023-02-16T05:02:56.795Z,99.99
2023-02-16T05:07:55.966Z,99.99
2023-02-16T05:12:58.114Z,99.99
2023-02-16T05:17:57.245Z,99.99
2023-02-16T05:22:58.440Z,99.99
2023-02-16T05:27:59.753Z,99.99
2023-02-16T05:33:00.936Z,99.99
2023-02-16T05:38:02.170Z,99.99
2023-02-16T05:43:04.346Z,99.99
2023-02-16T05:48:03.465Z,99.99
2023-02-16T05:53:05.713Z,99.99
2023-02-16T05:58:04.855Z,99.99
2023-02-16T06:03:06.511Z,99.99
2023-02-16T06:08:06.631Z,99.99
2023-02-16T06:13:06.794Z,99.99
2023-02-16T06:18:06.100Z,99.99
2023-02-16T06:23:07.280Z,99.99
2023-02-16T06:28:08.440Z,99.99
2023-02-16T06:33:09.601Z,99.99
2023-02-16T06:38:10.762Z,99.99
2023-02-16T06:43:11.936Z,99.99
2023-02-16T06:48:16.137Z,99.99
2023-02-16T06:53:13.237Z,99.99
2023-02-16T06:58:13.397Z,99.99
2023-02-16T07:03:15.572Z,99.99
2023-02-16T07:08:14.733Z,99.99
2023-02-16T07:13:15.880Z,99.99
2023-02-16T07:18:17.976Z,99.99
2023-02-16T07:23:17.104Z,99.99
2023-02-16T07:28:18.262Z,99.99
2023-02-16T07:33:19.408Z,99.99
2023-02-16T07:38:20.512Z,99.99
2023-02-16T07:43:21.641Z,99.76
2023-02-16T07:48:22.804Z,98.82
2023-02-16T07:53:24.970Z,99.66
2023-02-16T07:58:24.099Z,98.94
2023-02-16T08:03:25.434Z,98.68
2023-02-16T08:08:25.711Z,98.79
2023-02-16T08:13:25.827Z,99.00
2023-02-16T08:18:24.983Z,99.64
2023-02-16T08:23:26.167Z,98.77
2023-02-16T08:28:27.334Z,97.78
2023-02-16T08:33:29.509Z,97.68
2023-02-16T08:38:28.647Z,95.23
2023-02-16T08:43:29.821Z,94.84
2023-02-16T08:48:29.926Z,94.17
2023-02-16T08:53:31.035Z,92.41
2023-02-16T08:58:32.185Z,92.02
2023-02-16T09:03:33.325Z,89.83
2023-02-16T09:08:34.484Z,90.62
2023-02-16T09:13:35.741Z,91.58
2023-02-16T09:18:37.883Z,91.43
2023-02-16T09:23:37.067Z,89.73
2023-02-16T09:28:38.170Z,89.23
2023-02-16T09:33:40.279Z,88.11
2023-02-16T09:38:40.400Z,86.27
2023-02-16T09:43:39.581Z,85.94
2023-02-16T09:48:40.733Z,83.87
2023-02-16T09:53:43.878Z,81.87
2023-02-16T09:58:43.992Z,81.67
2023-02-16T10:03:45.117Z,81.21
2023-02-16T10:08:46.224Z,80.35
2023-02-16T10:13:46.323Z,79.49
2023-02-16T10:18:45.436Z,79.21
2023-02-16T10:23:46.548Z,77.56
2023-02-16T10:28:47.683Z,77.42
2023-02-16T10:33:48.803Z,76.46
2023-02-16T10:38:50.958Z,75.08
2023-02-16T10:43:51.144Z,74.77
2023-02-16T10:48:51.216Z,76.73
2023-02-16T10:53:52.352Z,70.94
2023-02-16T10:58:51.512Z,68.64
2023-02-16T11:03:53.691Z,69.94
2023-02-16T11:08:52.780Z,69.80
2023-02-16T11:13:54.907Z,71.48
2023-02-16T11:18:54.018Z,71.34
2023-02-16T11:23:56.138Z,70.56
2023-02-16T11:28:55.248Z,68.78
2023-02-16T11:33:56.340Z,70.08
2023-02-16T11:38:58.468Z,70.46
2023-02-16T11:43:58.588Z,68.44
2023-02-16T11:48:57.701Z,67.49
2023-02-16T11:53:59.794Z,68.55
2023-02-16T11:58:58.877Z,68.59
2023-02-16T12:04:00.058Z,68.38
2023-02-16T12:09:01.314Z,72.58
2023-02-16T12:14:03.455Z,75.15
2023-02-16T12:19:03.820Z,78.33
2023-02-16T12:24:03.915Z,78.91
2023-02-16T12:29:03.533Z,78.53
2023-02-16T12:34:03.627Z,76.72
2023-02-16T12:39:02.751Z,77.44
2023-02-16T12:44:04.888Z,75.86
2023-02-16T12:49:06.015Z,75.73
2023-02-16T12:54:06.137Z,71.01
2023-02-16T12:59:07.250Z,74.39
2023-02-16T13:04:07.386Z,75.21
2023-02-16T13:09:06.496Z,76.31
2023-02-16T13:14:08.638Z,75.35
2023-02-16T13:19:07.729Z,74.26
2023-02-16T13:24:08.850Z,76.10
2023-02-16T13:29:10.051Z,74.84
2023-02-16T13:34:11.356Z,72.69
2023-02-16T13:39:12.525Z,72.75
2023-02-16T13:44:14.658Z,72.79
2023-02-16T13:49:13.782Z,69.21
2023-02-16T13:54:15.889Z,66.63
2023-02-16T13:59:16.005Z,65.25
2023-02-16T14:04:16.182Z,63.92
2023-02-16T14:09:15.269Z,63.85
2023-02-16T14:14:18.359Z,62.46
2023-02-16T14:19:18.489Z,62.02
2023-02-16T14:24:17.631Z,61.79
2023-02-16T14:29:19.750Z,61.31
2023-02-16T14:34:19.917Z,63.07
2023-02-16T14:39:19.018Z,63.20
2023-02-16T14:44:20.125Z,64.04
2023-02-16T14:49:22.249Z,64.86
2023-02-16T14:54:22.389Z,66.21
2023-02-16T14:59:22.493Z,66.42
2023-02-16T15:04:21.618Z,66.75
2023-02-16T15:09:22.780Z,66.75
2023-02-16T15:14:23.898Z,66.92
2023-02-16T15:19:27.080Z,67.19
2023-02-16T15:24:26.355Z,66.78
2023-02-16T15:29:28.714Z,66.07
2023-02-16T15:34:29.881Z,66.28
2023-02-16T15:39:42.711Z,66.69
2023-02-16T15:44:30.016Z,67.30
2023-02-16T15:49:29.300Z,69.00
2023-02-16T15:54:31.812Z,68.86
2023-02-16T15:59:32.922Z,68.79
2023-02-16T16:04:32.460Z,69.02
2023-02-16T16:09:32.789Z,69.06
2023-02-16T16:14:34.264Z,71.76
2023-02-16T16:19:32.766Z,72.41
2023-02-16T16:24:31.915Z,73.27
2023-02-16T16:29:34.107Z,73.27
2023-02-16T16:34:34.261Z,73.40
2023-02-16T16:39:33.427Z,73.44
2023-02-16T16:44:35.769Z,75.32
2023-02-16T16:49:34.984Z,76.11
2023-02-16T16:54:38.101Z,76.11
2023-02-16T16:59:37.215Z,76.53
2023-02-16T17:04:39.575Z,76.39
2023-02-16T17:09:39.060Z,76.66
2023-02-16T17:14:39.497Z,77.18
2023-02-16T17:19:39.512Z,78.28
2023-02-16T17:24:39.522Z,78.59
2023-02-16T17:29:40.885Z,77.28
2023-02-16T17:34:42.273Z,77.83
2023-02-16T17:39:43.475Z,78.49
2023-02-16T17:44:44.979Z,78.18
2023-02-16T17:49:45.525Z,80.34
2023-02-16T17:54:45.048Z,80.28
2023-02-16T17:59:46.141Z,80.28
2023-02-16T18:04:46.658Z,81.56
2023-02-16T18:09:46.133Z,81.24
2023-02-16T18:14:45.652Z,81.49
2023-02-16T18:19:45.884Z,81.90
2023-02-16T18:24:44.374Z,81.24
2023-02-16T18:29:45.944Z,82.00
2023-02-16T18:34:45.469Z,82.00
2023-02-16T18:39:45.128Z,82.00
2023-02-16T18:44:44.663Z,82.21
2023-02-16T18:49:44.246Z,81.70
2023-02-16T18:54:44.788Z,82.62
2023-02-16T18:59:44.323Z,82.62
2023-02-16T19:04:44.959Z,82.93
2023-02-16T19:09:45.146Z,84.21
2023-02-16T19:14:45.727Z,83.59
2023-02-16T19:19:46.853Z,83.65
2023-02-16T19:24:51.620Z,83.65
2023-02-16T19:29:48.111Z,84.31
2023-02-16T19:34:47.728Z,85.04
2023-02-16T19:39:47.283Z,85.08
2023-02-16T19:44:51.996Z,85.24
2023-02-16T19:49:47.492Z,84.94
2023-02-16T19:54:51.546Z,84.11
2023-02-16T19:59:48.205Z,81.07
2023-02-16T20:04:47.776Z,80.69
2023-02-16T20:09:48.930Z,81.00
2023-02-16T20:14:48.493Z,78.28
2023-02-16T20:19:47.767Z,74.33
2023-02-16T20:24:49.193Z,72.58
2023-02-16T20:29:49.519Z,71.34
2023-02-16T20:34:50.081Z,72.06
2023-02-16T20:39:49.419Z,72.41
2023-02-16T20:44:50.852Z,72.30
2023-02-16T20:49:51.036Z,69.11
2023-02-16T20:54:50.583Z,73.05
2023-02-16T20:59:49.954Z,73.47
2023-02-16T21:04:51.975Z,74.02
2023-02-16T21:09:51.460Z,74.74
2023-02-16T21:14:53.988Z,75.39
2023-02-16T21:19:54.202Z,74.98
2023-02-16T21:24:54.091Z,73.91
2023-02-16T21:29:55.596Z,71.51
2023-02-16T21:34:54.105Z,68.15
2023-02-16T21:39:56.530Z,68.32
2023-02-16T21:44:55.715Z,67.68
2023-02-16T21:49:57.127Z,67.06
2023-02-16T21:54:58.330Z,65.28
2023-02-16T21:59:59.523Z,66.72
2023-02-16T22:05:00.633Z,63.50
2023-02-16T22:10:03.837Z,59.95
2023-02-16T22:15:04.648Z,59.41
2023-02-16T22:20:03.779Z,59.34
2023-02-16T22:25:05.928Z,61.39
2023-02-16T22:30:05.090Z,62.04
2023-02-16T22:35:06.173Z,65.28
2023-02-16T22:40:07.344Z,63.87
2023-02-16T22:45:08.513Z,66.13
2023-02-16T22:50:10.594Z,67.12
2023-02-16T22:55:09.757Z,66.78
2023-02-16T23:00:11.930Z,64.90
2023-02-16T23:05:11.080Z,63.32
2023-02-16T23:10:12.170Z,61.04
2023-02-16T23:15:13.291Z,59.57
2023-02-16T23:20:14.432Z,58.41
2023-02-16T23:25:15.584Z,57.46
2023-02-16T23:30:16.733Z,58.56
2023-02-16T23:35:18.174Z,58.77
2023-02-16T23:40:20.331Z,58.67
2023-02-16T23:45:19.421Z,58.67
2023-02-16T23:50:20.493Z,58.05
2023-02-16T23:55:21.754Z,57.82
